createdAt,value
2018-12-08T00:00:57.160Z,98583.96
2018-12-08T00:03:58.699Z,98585.50
2018-12-08T00:07:00.118Z,98593.59
2018-12-08T00:10:01.567Z,98584.06
2018-12-08T00:13:03.005Z,98580.60
2018-12-08T00:16:04.323Z,98579.88
2018-12-08T00:19:05.658Z,98584.51
2018-12-08T00:22:07.108Z,98574.30
2018-12-08T00:25:08.548Z,98580.53
2018-12-08T00:28:10.077Z,98578.20
2018-12-08T00:31:23.908Z,98579.95
2018-12-08T00:34:25.359Z,98591.15
2018-12-08T00:37:26.879Z,98581.70
2018-12-08T00:40:28.537Z,98585.64
2018-12-08T00:43:29.950Z,98590.98
2018-12-08T00:46:31.400Z,98591.22
2018-12-08T00:49:32.835Z,98582.59
2018-12-08T00:52:34.368Z,98579.70
2018-12-08T00:55:35.806Z,98590.91
2018-12-08T00:58:37.446Z,98592.79
2018-12-08T01:01:38.890Z,98594.81
2018-12-08T01:04:40.322Z,98600.48
2018-12-08T01:07:41.651Z,98596.19
2018-12-08T01:10:43.217Z,98599.88
2018-12-08T01:13:44.731Z,98599.49
2018-12-08T01:16:46.167Z,98588.83
2018-12-08T01:19:47.612Z,98579.32
2018-12-08T01:22:48.955Z,98586.39
2018-12-08T01:25:50.490Z,98574.55
2018-12-08T01:28:52.031Z,98569.34
2018-12-08T01:31:53.461Z,98567.69
2018-12-08T01:34:55.006Z,98564.47
2018-12-08T01:37:56.550Z,98561.51
2018-12-08T01:40:57.998Z,98556.35
2018-12-08T01:43:59.732Z,98550.12
2018-12-08T01:47:01.163Z,98544.50
2018-12-08T01:50:03.314Z,98538.52
2018-12-08T01:53:04.761Z,98525.73
2018-12-08T01:56:06.189Z,98551.93
2018-12-08T01:59:07.527Z,98552.13
2018-12-08T02:02:09.069Z,98555.86
2018-12-08T02:05:10.508Z,98554.44
2018-12-08T02:08:12.047Z,98549.77
2018-12-08T02:11:13.481Z,98539.03
2018-12-08T02:14:14.851Z,98549.31
2018-12-08T02:17:16.350Z,98542.95
2018-12-08T02:20:17.899Z,98542.14
2018-12-08T02:23:19.227Z,98549.85
2018-12-08T02:26:20.773Z,98555.03
2018-12-08T02:29:22.223Z,98559.95
2018-12-08T02:32:23.769Z,98566.80
2018-12-08T02:35:25.293Z,98576.63
2018-12-08T02:38:26.828Z,98583.48
2018-12-08T02:41:28.249Z,98591.66
2018-12-08T02:44:29.584Z,98597.59
2018-12-08T02:47:31.030Z,98594.23
2018-12-08T02:50:32.572Z,98612.29
2018-12-08T02:53:34.216Z,98608.08
2018-12-08T02:56:35.658Z,98618.94
2018-12-08T02:59:37.198Z,98617.86
2018-12-08T03:02:38.737Z,98604.43
2018-12-08T03:05:40.269Z,98605.23
2018-12-08T03:08:41.817Z,98622.48
2018-12-08T03:11:43.240Z,98607.69
2018-12-08T03:14:44.680Z,98615.28
2018-12-08T03:17:46.009Z,98620.20
2018-12-08T03:20:47.575Z,98619.59
2018-12-08T03:23:49.096Z,98626.95
2018-12-08T03:26:50.420Z,98635.98
2018-12-08T03:29:51.867Z,98644.77
2018-12-08T03:32:53.311Z,98655.47
2018-12-08T03:35:54.865Z,98664.82
2018-12-08T03:38:56.385Z,98690.91
2018-12-08T03:41:57.817Z,98724.88
2018-12-08T03:44:59.145Z,98760.59
2018-12-08T06:15:00.604Z,99141.88
2018-12-08T06:18:02.240Z,99125.93
2018-12-08T06:21:03.673Z,99144.90
2018-12-08T06:24:05.167Z,99160.34
2018-12-08T06:27:07.285Z,99156.77
2018-12-08T06:30:08.928Z,99164.91
2018-12-08T06:33:10.363Z,99185.50
2018-12-08T06:36:11.894Z,99195.50
2018-12-08T06:39:13.223Z,99200.48
2018-12-08T06:42:14.674Z,99222.36
2018-12-08T06:45:16.199Z,99214.98
2018-12-08T06:48:17.747Z,99230.02
2018-12-08T06:51:19.276Z,99215.80
2018-12-08T06:54:20.822Z,99226.45
2018-12-08T06:57:22.364Z,99233.80
2018-12-08T07:00:23.703Z,99257.27
2018-12-08T07:03:25.229Z,99250.44
2018-12-08T07:06:26.674Z,99250.99
2018-12-08T07:09:28.325Z,99255.63
2018-12-08T07:12:29.856Z,99239.25
2018-12-08T07:15:31.393Z,99261.07
2018-12-08T07:18:32.846Z,99254.00
2018-12-08T07:55:12.177Z,99247.45
2018-12-08T07:58:13.536Z,99243.38
2018-12-08T08:01:14.944Z,99249.39
2018-12-08T08:04:16.496Z,99261.41
2018-12-08T08:07:17.936Z,99263.03
2018-12-08T08:10:19.467Z,99261.41
2018-12-08T08:13:20.798Z,99261.92
2018-12-08T08:16:22.133Z,99272.29
2018-12-08T08:19:23.568Z,99257.28
2018-12-08T08:22:25.017Z,99257.28
2018-12-08T08:25:26.454Z,99252.38
2018-12-08T08:28:28.003Z,99248.55
2018-12-08T08:31:29.443Z,99257.00
2018-12-08T08:34:30.967Z,99256.19
2018-12-08T08:37:32.406Z,99258.92
2018-12-08T08:40:34.059Z,99259.73
2018-12-08T08:43:35.496Z,99254.83
2018-12-08T08:46:37.015Z,99255.64
2018-12-08T08:49:39.698Z,99256.74
2018-12-08T08:52:41.243Z,99258.66
2018-12-08T08:55:42.877Z,99248.30
2018-12-08T08:58:44.416Z,99242.84
2018-12-08T09:01:45.852Z,99245.27
2018-12-08T09:04:47.397Z,99248.00
2018-12-08T09:07:48.934Z,99251.02
2018-12-08T09:10:50.578Z,99250.47
2018-12-08T09:13:52.011Z,99240.36
2018-12-08T09:16:53.556Z,99236.82
2018-12-08T09:19:55.094Z,99245.27
2018-12-08T09:22:56.631Z,99246.37
2018-12-08T09:25:58.159Z,99244.98
2018-12-08T09:28:59.493Z,99226.13
2018-12-08T09:32:00.947Z,99224.49
2018-12-08T09:35:02.364Z,99223.64
2018-12-08T09:38:03.816Z,99233.74
2018-12-08T09:41:05.456Z,99223.87
2018-12-08T09:44:07.387Z,99223.02
2018-12-08T09:47:09.157Z,99223.28
2018-12-08T09:50:10.885Z,99211.80
2018-12-08T09:53:13.975Z,99204.11
2018-12-08T09:56:15.389Z,99204.41
2018-12-08T09:59:16.829Z,99203.29
2018-12-08T10:02:18.276Z,99206.59
2018-12-08T10:05:20.727Z,99204.42
2018-12-08T10:08:22.176Z,99198.72
2018-12-08T10:11:23.701Z,99216.22
2018-12-08T10:14:25.242Z,99206.93
2018-12-08T10:17:26.689Z,99190.84
2018-12-08T10:20:28.234Z,99194.69
2018-12-08T10:23:29.554Z,99194.97
2018-12-08T10:26:31.107Z,99189.80
2018-12-08T10:29:32.853Z,99179.15
2018-12-08T10:32:34.387Z,99185.71
2018-12-08T10:35:35.821Z,99182.41
2018-12-08T10:38:37.377Z,99171.75
2018-12-08T10:41:38.805Z,99164.36
2018-12-08T10:44:40.356Z,99153.72
2018-12-08T10:47:41.874Z,99154.81
2018-12-08T10:50:43.215Z,99164.64
2018-12-08T10:53:44.752Z,99154.46
2018-12-08T10:56:47.213Z,99165.86
2018-12-08T10:59:48.672Z,99153.17
2018-12-08T11:02:52.130Z,99151.89
2018-12-08T11:05:53.877Z,99155.03
2018-12-08T11:08:55.307Z,99137.88
2018-12-08T11:11:56.748Z,99120.36
2018-12-08T11:15:00.810Z,99132.41
2018-12-08T11:18:02.447Z,99130.58
2018-12-08T11:21:04.039Z,99128.08
2018-12-08T11:24:05.681Z,99129.17
2018-12-08T11:27:07.229Z,99120.33
2018-12-08T11:30:08.753Z,99132.87
2018-12-08T11:33:10.403Z,99135.29
2018-12-08T11:36:11.950Z,99139.67
2018-12-08T11:39:13.578Z,99127.95
2018-12-08T11:42:15.111Z,99106.42
2018-12-08T11:45:16.668Z,99130.66
2018-12-08T11:48:18.093Z,99109.48
2018-12-08T11:51:19.632Z,99116.87
2018-12-08T11:54:20.960Z,99106.87
2018-12-08T11:57:22.513Z,99096.83
2018-12-08T12:00:23.829Z,99091.69
2018-12-08T12:03:25.283Z,99089.55
2018-12-08T12:06:26.915Z,99097.64
2018-12-08T12:09:28.466Z,99097.59
2018-12-08T12:12:30.003Z,99095.49
2018-12-08T12:15:31.539Z,99095.20
2018-12-08T12:18:32.976Z,99080.64
2018-12-08T12:21:34.517Z,99068.71
2018-12-08T13:49:48.847Z,99065.39
2018-12-08T13:52:51.287Z,99072.35
2018-12-08T13:55:52.846Z,99087.90
2018-12-08T13:58:54.161Z,99082.33
2018-12-08T14:01:55.927Z,99076.70
2018-12-08T14:04:57.467Z,99061.80
2018-12-08T14:07:59.407Z,99055.33
2018-12-08T14:11:00.847Z,99071.52
2018-12-08T14:14:02.370Z,99087.31
2018-12-08T14:17:03.909Z,99069.67
2018-12-08T14:20:18.037Z,99055.98
2018-12-08T14:23:19.575Z,99049.64
2018-12-08T14:26:21.027Z,99049.08
2018-12-08T14:29:22.561Z,99046.61
2018-12-08T14:32:23.903Z,99057.45
2018-12-08T14:35:25.530Z,99052.94
2018-12-08T14:38:27.067Z,99055.20
2018-12-08T14:41:28.625Z,99051.44
2018-12-08T14:44:30.166Z,99048.47
2018-12-08T14:47:31.693Z,99046.33
2018-12-08T14:50:33.356Z,99047.45
2018-12-08T14:53:34.875Z,99043.38
2018-12-08T14:56:36.204Z,99044.78
2018-12-08T14:59:37.754Z,99043.97
2018-12-08T15:02:39.205Z,99044.23
2018-12-08T15:05:40.639Z,99044.53
2018-12-08T15:08:42.277Z,99049.18
2018-12-08T15:11:43.898Z,99042.66
2018-12-08T15:14:45.353Z,99033.92
2018-12-08T15:17:46.806Z,99043.20
2018-12-08T15:20:48.541Z,99046.70
2018-12-08T15:23:49.958Z,99042.10
2018-12-08T15:26:51.713Z,99042.91
2018-12-08T15:29:53.258Z,99037.20
2018-12-08T15:32:54.796Z,99053.25
2018-12-08T15:35:56.529Z,99053.55
2018-12-08T15:38:58.080Z,99048.63
2018-12-08T15:41:59.714Z,99035.55
2018-12-08T15:45:01.154Z,99030.36
2018-12-08T15:48:02.688Z,99027.37
2018-12-08T15:51:04.341Z,99040.74
2018-12-08T15:54:05.884Z,99032.56
2018-12-08T15:57:07.526Z,99033.37
2018-12-08T16:00:11.514Z,99029.80
2018-12-08T16:03:13.147Z,99025.45
2018-12-08T16:06:14.802Z,99027.66
2018-12-08T16:09:16.352Z,99026.01
2018-12-08T16:12:17.861Z,99034.19
2018-12-08T16:15:19.310Z,99029.02
2018-12-08T16:18:20.964Z,99030.38
2018-12-08T16:21:22.509Z,99042.66
2018-12-08T16:24:24.450Z,99038.02
2018-12-08T16:27:26.098Z,99035.28
2018-12-08T16:30:27.621Z,99032.00
2018-12-08T16:33:29.068Z,99029.55
2018-12-08T16:36:30.697Z,99022.47
2018-12-08T16:39:32.357Z,99016.17
2018-12-08T16:42:33.782Z,99022.98
2018-12-08T16:45:35.425Z,99020.03
2018-12-08T16:48:36.850Z,99015.09
2018-12-08T16:51:38.516Z,99010.75
2018-12-08T16:54:39.953Z,99002.31
2018-12-08T16:57:41.486Z,99005.30
2018-12-08T17:00:43.118Z,98987.83
2018-12-08T17:03:44.767Z,98990.56
2018-12-08T17:06:46.303Z,98987.03
2018-12-08T17:09:47.851Z,98984.86
2018-12-08T17:12:50.111Z,98976.97
2018-12-08T17:15:51.744Z,98972.88
2018-12-08T17:18:53.292Z,98970.99
2018-12-08T17:21:54.824Z,98972.89
2018-12-08T17:24:56.367Z,98979.14
2018-12-08T17:27:58.103Z,98983.77
2018-12-08T17:30:59.558Z,98973.97
2018-12-08T17:34:01.085Z,98973.41
2018-12-08T17:37:02.722Z,98977.78
2018-12-08T17:40:06.257Z,98986.74
2018-12-08T17:43:07.956Z,98969.06
2018-12-08T17:46:09.501Z,98968.51
2018-12-08T17:49:11.043Z,98961.97
2018-12-08T17:52:12.589Z,98960.06
2018-12-08T17:55:14.315Z,98952.73
2018-12-08T17:58:15.852Z,98958.44
2018-12-08T18:01:17.504Z,98954.08
2018-12-08T18:04:19.045Z,98947.02
2018-12-08T18:07:20.581Z,98958.45
2018-12-08T18:10:22.114Z,98956.55
2018-12-08T18:13:23.557Z,98956.80
2018-12-08T18:16:25.099Z,98942.37
2018-12-08T18:19:26.627Z,98933.66
2018-12-08T18:22:28.021Z,98934.77
2018-12-08T18:25:29.803Z,98931.50
2018-12-08T18:28:31.451Z,98924.13
2018-12-08T18:31:33.106Z,98926.86
2018-12-08T18:34:34.756Z,98933.12
2018-12-08T18:37:37.299Z,98937.47
2018-12-08T18:40:38.948Z,98929.05
2018-12-08T18:43:40.474Z,98931.22
2018-12-08T18:46:42.121Z,98949.72
2018-12-08T18:49:43.567Z,98943.93
2018-12-08T18:52:45.097Z,98940.65
2018-12-08T18:55:46.522Z,98948.84
2018-12-08T18:58:47.895Z,98941.20
2018-12-08T19:01:49.722Z,98936.83
2018-12-08T19:04:51.457Z,98935.45
2018-12-08T19:07:53.110Z,98947.71
2018-12-08T19:10:54.638Z,98955.34
2018-12-08T19:13:56.075Z,98937.35
2018-12-08T19:16:57.618Z,98937.39
2018-12-08T19:19:59.051Z,98932.89
2018-12-08T19:23:00.712Z,98922.02
2018-12-08T19:26:03.244Z,98943.62
2018-12-08T19:29:04.788Z,98927.28
2018-12-08T19:32:06.529Z,98922.69
2018-12-08T19:35:08.170Z,98917.77
2018-12-08T19:38:10.129Z,98919.39
2018-12-08T19:41:11.971Z,98916.42
2018-12-08T19:44:14.439Z,98903.91
2018-12-08T19:47:16.079Z,98913.99
2018-12-08T19:50:17.520Z,98906.63
2018-12-08T19:53:19.863Z,98897.09
2018-12-08T19:56:21.309Z,98905.02
2018-12-08T19:59:22.860Z,98900.67
2018-12-08T20:02:24.587Z,98897.09
2018-12-08T20:05:26.140Z,98886.73
2018-12-08T20:08:27.580Z,98898.98
2018-12-08T20:11:29.108Z,98899.80
2018-12-08T20:14:30.543Z,98906.34
2018-12-08T20:17:32.099Z,98896.77
2018-12-08T20:20:33.640Z,98893.20
2018-12-08T20:23:35.080Z,98898.64
2018-12-08T20:26:36.593Z,98893.73
2018-12-08T20:29:38.040Z,98886.92
2018-12-08T20:32:39.673Z,98894.55
2018-12-08T20:35:41.220Z,98890.45
2018-12-08T20:38:42.757Z,98878.75
2018-12-08T20:41:44.295Z,98873.85
2018-12-08T20:44:45.836Z,98870.02
2018-12-08T20:47:47.371Z,98874.69
2018-12-08T20:50:49.034Z,98870.89
2018-12-08T20:53:50.561Z,98866.23
2018-12-08T20:56:51.999Z,98858.63
2018-12-08T20:59:53.533Z,98854.84
2018-12-08T21:02:54.965Z,98846.92
2018-12-08T21:05:56.521Z,98840.43
2018-12-08T21:08:57.959Z,98841.84
2018-12-08T21:11:59.500Z,98845.93
2018-12-08T21:15:00.931Z,98841.84
2018-12-08T21:18:02.480Z,98834.78
2018-12-08T21:21:04.120Z,98836.70
2018-12-08T21:24:05.639Z,98821.72
2018-12-08T21:27:07.199Z,98826.31
2018-12-08T21:30:08.738Z,98827.92
2018-12-08T21:33:10.176Z,98812.37
2018-12-08T21:36:11.698Z,98815.09
2018-12-08T21:39:13.146Z,98810.69
2018-12-08T21:42:14.686Z,98794.90
2018-12-08T21:45:16.125Z,98792.47
2018-12-08T21:48:17.673Z,98787.03
2018-12-08T21:51:19.106Z,98798.20
2018-12-08T21:54:20.645Z,98784.07
2018-12-08T21:57:22.174Z,98770.71
2018-12-08T22:00:23.725Z,98784.64
2018-12-08T22:03:25.264Z,98779.45
2018-12-08T22:06:26.894Z,98788.74
2018-12-08T22:09:28.328Z,98769.42
2018-12-08T22:12:29.886Z,98765.03
2018-12-08T22:15:31.410Z,98765.04
2018-12-08T22:18:32.734Z,98751.70
2018-12-08T22:21:34.509Z,98755.49
2018-12-08T22:24:35.917Z,98754.12
2018-12-08T22:27:37.476Z,98751.14
2018-12-08T22:30:39.218Z,98759.33
2018-12-08T22:33:40.748Z,98747.08
2018-12-08T22:36:42.196Z,98734.01
2018-12-08T22:39:43.738Z,98732.66
2018-12-08T22:42:45.164Z,98737.29
2018-12-08T22:45:46.591Z,98736.18
2018-12-08T22:48:48.155Z,98728.24
2018-12-08T22:51:49.685Z,98714.30
2018-12-08T22:54:51.005Z,98714.61
2018-12-08T22:57:53.363Z,98702.39
2018-12-08T23:00:54.922Z,98707.84
2018-12-08T23:03:56.456Z,98703.00
2018-12-08T23:07:00.132Z,98699.74
2018-12-08T23:10:01.573Z,98695.41
2018-12-08T23:13:03.222Z,98707.97
2018-12-08T23:16:04.857Z,98709.02
2018-12-08T23:19:06.415Z,98694.55
2018-12-08T23:22:07.949Z,98688.54
2018-12-08T23:25:09.585Z,98684.21
2018-12-08T23:28:11.128Z,98681.23
2018-12-08T23:31:12.663Z,98673.30
2018-12-08T23:34:14.415Z,98669.48
2018-12-08T23:37:15.945Z,98674.68
2018-12-08T23:40:17.685Z,98658.91
2018-12-08T23:43:19.238Z,98657.56
2018-12-08T23:46:20.766Z,98650.00
2018-12-08T23:49:22.514Z,98643.20
2018-12-08T23:52:24.156Z,98632.08
2018-12-08T23:55:25.580Z,98624.73
2018-12-08T23:58:27.034Z,98617.94
